createdAt,value
2016-05-17T00:00:45.750Z,1001.81
2016-05-17T00:01:45.768Z,1001.83
2016-05-17T00:02:45.818Z,1001.79
2016-05-17T00:03:45.852Z,1001.75
2016-05-17T00:04:45.886Z,1001.76
2016-05-17T00:05:45.919Z,1001.73
2016-05-17T00:06:46.156Z,1001.89
2016-05-17T00:07:45.988Z,1001.75
2016-05-17T00:08:46.036Z,1001.79
2016-05-17T00:09:46.071Z,1001.81
2016-05-17T00:10:46.105Z,1001.76
2016-05-17T00:11:46.139Z,1001.77
2016-05-17T00:12:46.173Z,1001.78
2016-05-17T00:13:46.207Z,1001.81
2016-05-17T00:14:46.257Z,1001.78
2016-05-17T00:15:46.290Z,1001.78
2016-05-17T00:16:46.324Z,1001.78
2016-05-17T00:17:46.358Z,1001.77
2016-05-17T00:18:46.392Z,1001.84
2016-05-17T00:19:46.427Z,1001.8
2016-05-17T00:20:46.476Z,1001.77
2016-05-17T00:21:46.619Z,1001.76
2016-05-17T00:22:46.544Z,1001.78
2016-05-17T00:23:46.577Z,1001.76
2016-05-17T00:24:46.643Z,1001.79
2016-05-17T00:25:46.661Z,1001.82
2016-05-17T00:26:46.695Z,1001.8
2016-05-17T00:27:46.729Z,1001.79
2016-05-17T00:28:46.763Z,1001.8
2016-05-17T00:29:46.797Z,1001.81
2016-05-17T00:30:46.831Z,1001.77
2016-05-17T00:31:46.911Z,1001.76
2016-05-17T00:32:46.915Z,1001.79
2016-05-17T00:33:46.948Z,1001.79
2016-05-17T00:34:46.981Z,1001.77
2016-05-17T00:35:47.016Z,1001.77
2016-05-17T00:36:47.050Z,1001.78
2016-05-17T00:37:47.100Z,1001.81
2016-05-17T00:38:47.134Z,1001.79
2016-05-17T00:39:47.167Z,1001.75
2016-05-17T00:40:47.202Z,1001.7
2016-05-17T00:41:47.235Z,1001.66
2016-05-17T00:42:47.316Z,1001.7
2016-05-17T00:43:47.319Z,1001.7
2016-05-17T00:44:47.353Z,1001.72
2016-05-17T00:45:47.387Z,1001.74
2016-05-17T00:46:47.452Z,1001.79
2016-05-17T00:47:47.455Z,1001.72
2016-05-17T00:48:47.505Z,1001.68
2016-05-17T00:49:47.538Z,1001.74
2016-05-17T00:50:47.587Z,1001.65
2016-05-17T00:51:48.012Z,1001.69
2016-05-17T00:52:47.640Z,1001.71
2016-05-17T00:53:47.674Z,1001.69
2016-05-17T00:54:47.723Z,1001.67
2016-05-17T00:55:47.757Z,1001.67
2016-05-17T00:56:47.791Z,1001.64
2016-05-17T00:57:47.825Z,1001.62
2016-05-17T00:58:47.859Z,1001.66
2016-05-17T00:59:47.909Z,1001.63
2016-05-17T01:00:47.943Z,1001.6
2016-05-17T01:01:47.977Z,1001.61
2016-05-17T01:02:48.011Z,1001.62
2016-05-17T01:03:48.045Z,1001.66
2016-05-17T01:04:48.078Z,1001.64
2016-05-17T01:05:48.128Z,1001.68
2016-05-17T01:06:48.364Z,1001.59
2016-05-17T01:07:48.196Z,1001.64
2016-05-17T01:08:48.230Z,1001.6
2016-05-17T01:09:48.264Z,1001.59
2016-05-17T01:10:48.298Z,1001.59
2016-05-17T01:11:48.347Z,1001.59
2016-05-17T01:12:48.381Z,1001.59
2016-05-17T01:13:48.416Z,1001.58
2016-05-17T01:14:48.449Z,1001.55
2016-05-17T01:15:48.499Z,1001.58
2016-05-17T01:16:48.517Z,1001.53
2016-05-17T01:17:48.552Z,1001.53
2016-05-17T01:18:48.600Z,1001.52
2016-05-17T01:19:48.650Z,1001.52
2016-05-17T01:20:48.669Z,1001.53
2016-05-17T01:21:48.702Z,1001.51
2016-05-17T01:22:48.736Z,1001.45
2016-05-17T01:23:48.770Z,1001.52
2016-05-17T01:24:48.804Z,1001.46
2016-05-17T01:25:48.854Z,1001.5
2016-05-17T01:26:48.888Z,1001.5
2016-05-17T01:27:48.921Z,1001.47
2016-05-17T01:28:48.956Z,1001.48
2016-05-17T01:29:48.989Z,1001.51
2016-05-17T01:30:49.023Z,1001.5
2016-05-17T01:31:49.073Z,1001.5
2016-05-17T01:32:49.106Z,1001.49
2016-05-17T01:33:49.220Z,1001.47
2016-05-17T01:34:49.175Z,1001.48
2016-05-17T01:35:49.209Z,1001.46
2016-05-17T01:36:49.259Z,1001.48
2016-05-17T01:37:49.292Z,1001.46
2016-05-17T01:38:49.326Z,1001.47
2016-05-17T01:39:49.360Z,1001.42
2016-05-17T01:40:49.394Z,1001.39
2016-05-17T01:41:49.428Z,1001.41
2016-05-17T01:42:49.478Z,1001.4
2016-05-17T01:43:49.511Z,1001.37
2016-05-17T01:44:49.545Z,1001.42
2016-05-17T01:45:49.610Z,1001.38
2016-05-17T01:46:49.629Z,1001.37
2016-05-17T01:47:49.647Z,1001.36
2016-05-17T01:48:49.680Z,1001.37
2016-05-17T01:49:49.731Z,1001.36
2016-05-17T01:50:49.765Z,1001.38
2016-05-17T01:51:49.799Z,1001.33
2016-05-17T01:52:49.833Z,1001.29
2016-05-17T01:53:49.866Z,1001.27
2016-05-17T01:54:49.901Z,1001.28
2016-05-17T01:55:49.934Z,1001.25
2016-05-17T01:56:49.999Z,1001.27
2016-05-17T01:57:50.018Z,1001.25
2016-05-17T01:58:50.052Z,1001.21
2016-05-17T01:59:50.085Z,1001.26
2016-05-17T02:00:50.120Z,1001.26
2016-05-17T02:01:50.154Z,1001.23
2016-05-17T02:02:50.203Z,1001.26
2016-05-17T02:03:50.237Z,1001.24
2016-05-17T02:04:50.270Z,1001.22
2016-05-17T02:05:50.306Z,1001.23
2016-05-17T02:06:50.339Z,1001.17
2016-05-17T02:07:50.404Z,1001.23
2016-05-17T02:08:50.423Z,1001.2
2016-05-17T02:09:50.456Z,1001.19
2016-05-17T02:10:50.490Z,1001.19
2016-05-17T02:11:50.540Z,1001.19
2016-05-17T02:12:50.558Z,1001.2
2016-05-17T02:13:50.592Z,1001.18
2016-05-17T02:14:50.626Z,1001.2
2016-05-17T02:15:50.675Z,1001.2
2016-05-17T02:16:50.694Z,1001.21
2016-05-17T02:17:50.744Z,1001.18
2016-05-17T02:18:50.808Z,1001.24
2016-05-17T02:19:50.812Z,1001.2
2016-05-17T02:20:50.845Z,1001.21
2016-05-17T02:21:50.894Z,1001.23
2016-05-17T02:22:50.929Z,1001.23
2016-05-17T02:23:50.963Z,1001.3
2016-05-17T02:24:50.997Z,1001.25
2016-05-17T02:25:51.030Z,1001.23
2016-05-17T02:26:51.065Z,1001.2
2016-05-17T02:27:51.099Z,1001.22
2016-05-17T02:28:51.148Z,1001.25
2016-05-17T02:29:51.198Z,1001.22
2016-05-17T02:30:51.216Z,1001.22
2016-05-17T02:31:51.251Z,1001.33
2016-05-17T02:32:51.284Z,1001.2
2016-05-17T02:33:51.318Z,1001.19
2016-05-17T02:34:51.351Z,1001.26
2016-05-17T02:35:51.386Z,1001.23
2016-05-17T02:36:51.434Z,1001.22
2016-05-17T02:37:51.470Z,1001.2
2016-05-17T02:38:51.503Z,1001.23
2016-05-17T02:39:51.600Z,1001.22
2016-05-17T02:40:51.618Z,1001.19
2016-05-17T02:41:51.605Z,1001.21
2016-05-17T02:42:51.639Z,1001.19
2016-05-17T02:43:51.688Z,1001.17
2016-05-17T02:44:51.722Z,1001.22
2016-05-17T02:45:51.756Z,1001.26
2016-05-17T02:46:51.791Z,1001.27
2016-05-17T02:47:51.825Z,1001.26
2016-05-17T02:48:51.858Z,1001.24
2016-05-17T02:49:51.907Z,1001.29
2016-05-17T02:50:51.941Z,1001.31
2016-05-17T02:51:52.008Z,1001.33
2016-05-17T02:52:52.010Z,1001.34
2016-05-17T02:53:52.044Z,1001.3
2016-05-17T02:54:52.077Z,1001.28
2016-05-17T02:55:52.127Z,1001.28
2016-05-17T02:56:52.146Z,1001.25
2016-05-17T02:57:52.195Z,1001.27
2016-05-17T02:58:52.229Z,1001.28
2016-05-17T02:59:52.263Z,1001.27
2016-05-17T03:00:52.297Z,1001.3
2016-05-17T03:01:52.331Z,1001.3
2016-05-17T03:02:52.365Z,1001.3
2016-05-17T03:03:52.398Z,1001.3
2016-05-17T03:04:52.448Z,1001.32
2016-05-17T03:05:52.482Z,1001.32
2016-05-17T03:06:52.547Z,1001.3
2016-05-17T03:07:52.550Z,1001.33
2016-05-17T03:08:52.584Z,1001.31
2016-05-17T03:09:52.633Z,1001.3
2016-05-17T03:10:52.651Z,1001.32
2016-05-17T03:11:52.701Z,1001.29
2016-05-17T03:12:52.736Z,1001.27
2016-05-17T03:13:52.769Z,1001.25
2016-05-17T03:14:52.803Z,1001.26
2016-05-17T03:15:52.852Z,1001.22
2016-05-17T03:16:52.872Z,1001.28
2016-05-17T03:17:52.920Z,1001.29
2016-05-17T03:18:52.955Z,1001.28
2016-05-17T03:19:52.989Z,1001.26
2016-05-17T03:20:53.022Z,1001.28
2016-05-17T03:21:53.055Z,1001.31
2016-05-17T03:22:53.090Z,1001.3
2016-05-17T03:23:53.124Z,1001.32
2016-05-17T03:24:53.158Z,1001.3
2016-05-17T03:25:53.191Z,1001.33
2016-05-17T03:26:53.257Z,1001.3
2016-05-17T03:27:53.276Z,1001.32
2016-05-17T03:28:53.310Z,1001.29
2016-05-17T03:29:53.421Z,1001.32
2016-05-17T03:30:53.377Z,1001.32
2016-05-17T03:31:53.411Z,1001.31
2016-05-17T03:32:53.461Z,1001.28
2016-05-17T03:33:53.480Z,1001.27
2016-05-17T03:34:53.529Z,1001.32
2016-05-17T03:35:53.563Z,1001.32
2016-05-17T03:36:54.065Z,1001.23
2016-05-17T03:37:53.631Z,1001.29
2016-05-17T03:38:53.664Z,1001.34
2016-05-17T03:39:53.715Z,1001.31
2016-05-17T03:40:53.732Z,1001.28
2016-05-17T03:41:53.782Z,1001.33
2016-05-17T03:42:53.816Z,1001.37
2016-05-17T03:43:53.850Z,1001.35
2016-05-17T03:44:53.884Z,1001.42
2016-05-17T03:45:53.917Z,1001.39
2016-05-17T03:46:53.952Z,1001.43
2016-05-17T03:47:53.985Z,1001.42
2016-05-17T03:48:54.036Z,1001.46
2016-05-17T03:49:54.069Z,1001.42
2016-05-17T03:50:54.102Z,1001.4
2016-05-17T03:51:54.481Z,1001.42
2016-05-17T03:52:54.171Z,1001.4
2016-05-17T03:53:54.221Z,1001.45
2016-05-17T03:54:54.238Z,1001.42
2016-05-17T03:55:54.288Z,1001.37
2016-05-17T03:56:54.307Z,1001.45
2016-05-17T03:57:54.372Z,1001.42
2016-05-17T03:58:54.390Z,1001.46
2016-05-17T03:59:54.424Z,1001.43
2016-05-17T04:00:54.458Z,1001.42
2016-05-17T04:01:54.492Z,1001.43
2016-05-17T04:02:54.526Z,1001.44
2016-05-17T04:03:54.559Z,1001.38
2016-05-17T04:04:54.610Z,1001.39
2016-05-17T04:05:54.629Z,1001.42
2016-05-17T04:06:54.677Z,1001.38
2016-05-17T04:07:54.712Z,1001.39
2016-05-17T04:08:54.792Z,1001.44
2016-05-17T04:09:54.779Z,1001.42
2016-05-17T04:10:54.812Z,1001.43
2016-05-17T04:11:54.847Z,1001.42
2016-05-17T04:12:54.881Z,1001.4
2016-05-17T04:13:54.931Z,1001.38
2016-05-17T04:14:54.964Z,1001.34
2016-05-17T04:15:54.998Z,1001.32
2016-05-17T04:16:55.033Z,1001.28
2016-05-17T04:17:55.066Z,1001.3
2016-05-17T04:18:55.116Z,1001.29
2016-05-17T04:19:55.133Z,1001.3
2016-05-17T04:20:55.184Z,1001.29
2016-05-17T04:21:55.390Z,1001.31
2016-05-17T04:22:55.252Z,1001.24
2016-05-17T04:23:55.286Z,1001.27
2016-05-17T04:24:55.319Z,1001.31
2016-05-17T04:25:55.353Z,1001.32
2016-05-17T04:26:55.402Z,1001.29
2016-05-17T04:27:55.437Z,1001.31
2016-05-17T04:28:55.471Z,1001.29
2016-05-17T04:29:55.505Z,1001.31
2016-05-17T04:30:55.538Z,1001.33
2016-05-17T04:31:55.573Z,1001.3
2016-05-17T04:32:55.607Z,1001.29
2016-05-17T04:33:55.656Z,1001.27
2016-05-17T04:34:55.690Z,1001.33
2016-05-17T04:35:55.723Z,1001.28
2016-05-17T04:36:55.758Z,1001.29
2016-05-17T04:37:55.808Z,1001.28
2016-05-17T04:38:55.826Z,1001.26
2016-05-17T04:39:55.860Z,1001.26
2016-05-17T04:40:55.909Z,1001.26
2016-05-17T04:41:55.943Z,1001.32
2016-05-17T04:42:55.977Z,1001.24
2016-05-17T04:43:56.011Z,1001.22
2016-05-17T04:44:56.045Z,1001.25
2016-05-17T04:45:56.079Z,1001.21
2016-05-17T04:46:56.129Z,1001.3
2016-05-17T04:47:56.162Z,1001.21
2016-05-17T04:48:56.197Z,1001.24
2016-05-17T04:49:56.230Z,1001.25
2016-05-17T04:50:56.264Z,1001.31
2016-05-17T04:51:56.844Z,1001.39
2016-05-17T04:52:56.348Z,1001.24
2016-05-17T04:53:56.383Z,1001.27
2016-05-17T04:54:56.416Z,1001.3
2016-05-17T04:55:56.497Z,1001.34
2016-05-17T04:56:56.483Z,1001.32
2016-05-17T04:57:56.518Z,1001.26
2016-05-17T04:58:56.552Z,1001.28
2016-05-17T04:59:56.585Z,1001.3
2016-05-17T05:00:56.635Z,1001.25
2016-05-17T05:01:56.669Z,1001.27
2016-05-17T05:02:56.703Z,1001.25
2016-05-17T05:03:56.737Z,1001.26
2016-05-17T05:04:56.771Z,1001.37
2016-05-17T05:05:56.804Z,1001.39
2016-05-17T05:06:56.885Z,1001.35
2016-05-17T05:07:56.887Z,1001.33
2016-05-17T05:08:56.922Z,1001.38
2016-05-17T05:09:56.978Z,1001.33
2016-05-17T05:10:57.085Z,1001.32
2016-05-17T05:11:57.147Z,1001.32
2016-05-17T05:12:57.223Z,1001.3
2016-05-17T05:13:57.285Z,1001.34
2016-05-17T05:14:57.364Z,1001.31
2016-05-17T05:15:57.413Z,1001.34
2016-05-17T05:16:57.463Z,1001.37
2016-05-17T05:17:57.543Z,1001.3
2016-05-17T05:18:57.577Z,1001.32
2016-05-17T05:19:57.622Z,1001.31
2016-05-17T05:20:57.661Z,1001.34
2016-05-17T05:21:57.700Z,1001.35
2016-05-17T05:22:57.739Z,1001.42
2016-05-17T05:23:57.778Z,1001.34
2016-05-17T05:24:57.816Z,1001.36
2016-05-17T05:25:57.852Z,1001.37
2016-05-17T05:26:57.904Z,1001.34
2016-05-17T05:27:58.080Z,1001.39
2016-05-17T05:28:57.975Z,1001.36
2016-05-17T05:29:58.011Z,1001.4
2016-05-17T05:30:58.045Z,1001.38
2016-05-17T05:31:58.079Z,1001.42
2016-05-17T05:32:58.161Z,1001.4
2016-05-17T05:33:58.165Z,1001.42
2016-05-17T05:34:58.199Z,1001.41
2016-05-17T05:35:58.234Z,1001.51
2016-05-17T05:36:58.284Z,1001.44
2016-05-17T05:37:59.724Z,1001.44
2016-05-17T05:38:58.415Z,1001.46
2016-05-17T05:39:58.386Z,1001.47
2016-05-17T05:40:58.420Z,1001.43
2016-05-17T05:41:58.454Z,1001.45
2016-05-17T05:42:58.488Z,1001.48
2016-05-17T05:43:58.663Z,1001.49
2016-05-17T05:44:58.712Z,1001.47
2016-05-17T05:45:58.606Z,1001.5
2016-05-17T05:46:58.734Z,1001.49
2016-05-17T05:47:58.673Z,1001.49
2016-05-17T05:48:58.708Z,1001.48
2016-05-17T05:49:58.803Z,1001.53
2016-05-17T05:50:58.775Z,1001.51
2016-05-17T05:51:58.856Z,1001.54
2016-05-17T05:52:58.906Z,1001.5
2016-05-17T05:53:58.893Z,1001.52
2016-05-17T05:54:58.927Z,1001.48
2016-05-17T05:55:58.961Z,1001.51
2016-05-17T05:56:59.011Z,1001.5
2016-05-17T05:57:59.060Z,1001.54
2016-05-17T05:58:59.141Z,1001.54
2016-05-17T05:59:59.112Z,1001.54
2016-05-17T06:00:59.147Z,1001.55
2016-05-17T06:01:59.180Z,1001.55
2016-05-17T06:02:59.527Z,1001.57
2016-05-17T06:03:59.264Z,1001.67
2016-05-17T06:04:59.297Z,1001.62
2016-05-17T06:05:59.331Z,1001.62
2016-05-17T06:06:59.552Z,1001.58
2016-05-17T06:07:59.399Z,1001.6
2016-05-17T06:08:59.449Z,1001.65
2016-05-17T06:09:59.936Z,1001.62
2016-05-17T06:10:59.516Z,1001.62
2016-05-17T06:11:59.551Z,1001.59
2016-05-17T06:12:59.599Z,1001.69
2016-05-17T06:13:59.618Z,1001.62
2016-05-17T06:16:32.017Z,1001.63
2016-05-17T06:17:27.707Z,1001.66
2016-05-17T06:18:27.601Z,1001.68
2016-05-17T06:19:27.618Z,1001.65
2016-05-17T06:20:27.654Z,1001.7
2016-05-17T06:21:27.687Z,1001.71
2016-05-17T06:22:27.830Z,1001.73
2016-05-17T06:23:27.817Z,1001.73
2016-05-17T06:24:27.789Z,1001.72
2016-05-17T06:25:27.839Z,1001.74
2016-05-17T06:26:27.873Z,1001.75
2016-05-17T06:27:28.095Z,1001.72
2016-05-17T06:28:28.080Z,1001.77
2016-05-17T06:29:28.896Z,1001.75
2016-05-17T06:30:28.680Z,1001.71
2016-05-17T06:31:28.433Z,1001.77
2016-05-17T06:32:28.436Z,1001.73
2016-05-17T06:33:28.579Z,1001.75
2016-05-17T06:34:29.003Z,1001.76
2016-05-17T06:35:28.709Z,1001.72
2016-05-17T06:36:28.665Z,1001.7
2016-05-17T06:37:28.871Z,1001.75
2016-05-17T06:38:29.608Z,1001.73
2016-05-17T06:39:28.813Z,1001.74
2016-05-17T06:40:29.066Z,1001.72
2016-05-17T06:41:32.272Z,1001.75
2016-05-17T06:42:29.228Z,1001.76
2016-05-17T06:43:28.996Z,1001.72
2016-05-17T06:44:29.093Z,1001.7
2016-05-17T06:45:28.971Z,1001.69
2016-05-17T06:46:29.207Z,1001.67
2016-05-17T06:47:29.069Z,1001.66
2016-05-17T06:48:29.165Z,1001.66
2016-05-17T06:49:29.012Z,1001.7
2016-05-17T06:50:28.999Z,1001.74
2016-05-17T06:51:29.049Z,1001.69
2016-05-17T06:52:29.004Z,1001.7
2016-05-17T06:53:28.992Z,1001.63
2016-05-17T06:54:28.979Z,1001.73
2016-05-17T06:55:28.965Z,1001.72
2016-05-17T06:56:29.000Z,1001.64
2016-05-17T06:57:29.033Z,1001.7
2016-05-17T06:58:29.365Z,1001.67
2016-05-17T06:59:29.445Z,1001.64
2016-05-17T07:00:29.823Z,1001.67
2016-05-17T07:01:29.356Z,1001.63
2016-05-17T07:02:29.219Z,1001.74
2016-05-17T07:03:29.253Z,1001.72
2016-05-17T07:04:29.411Z,1001.6
2016-05-17T07:05:29.649Z,1001.66
2016-05-17T07:06:29.652Z,1001.65
2016-05-17T07:07:29.530Z,1001.61
2016-05-17T07:08:29.469Z,1001.68
2016-05-17T07:09:29.503Z,1001.63
2016-05-17T07:10:29.521Z,1001.62
2016-05-17T07:11:29.555Z,1001.65
2016-05-17T07:12:29.636Z,1001.64
2016-05-17T07:13:29.827Z,1001.67
2016-05-17T07:14:32.891Z,1001.65
2016-05-17T07:15:30.504Z,1001.64
2016-05-17T07:16:29.757Z,1001.66
2016-05-17T07:17:30.088Z,1001.77
2016-05-17T07:18:29.887Z,1001.66
2016-05-17T07:19:30.030Z,1001.65
2016-05-17T07:20:29.892Z,1001.86
2016-05-17T07:21:29.942Z,1001.65
2016-05-17T07:22:30.023Z,1001.73
2016-05-17T07:23:30.009Z,1001.64
2016-05-17T07:24:30.060Z,1001.6
2016-05-17T07:25:30.312Z,1001.61
2016-05-17T07:26:30.128Z,1001.65
2016-05-17T07:27:30.162Z,1001.71
2016-05-17T07:28:30.461Z,1001.73
2016-05-17T07:29:30.245Z,1001.73
2016-05-17T07:30:30.278Z,1001.72
2016-05-17T07:31:30.422Z,1001.72
2016-05-17T07:32:30.378Z,1001.74
2016-05-17T07:33:30.506Z,1001.75
2016-05-17T07:34:30.617Z,1001.72
2016-05-17T07:35:30.558Z,1001.68
2016-05-17T07:36:30.701Z,1001.72
2016-05-17T07:37:30.782Z,1001.74
2016-05-17T07:38:30.800Z,1001.69
2016-05-17T07:39:30.850Z,1001.77
2016-05-17T07:40:31.290Z,1001.73
2016-05-17T07:41:31.027Z,1001.84
2016-05-17T07:42:31.061Z,1001.68
2016-05-17T07:43:30.969Z,1001.77
2016-05-17T07:44:31.238Z,1001.76
2016-05-17T07:45:30.990Z,1001.76
2016-05-17T07:46:31.260Z,1001.77
2016-05-17T07:47:31.028Z,1001.77
2016-05-17T07:48:31.046Z,1001.68
2016-05-17T07:49:31.065Z,1001.68
2016-05-17T07:50:31.520Z,1001.71
2016-05-17T07:51:31.132Z,1001.71
2016-05-17T07:52:31.198Z,1001.73
2016-05-17T07:53:31.309Z,1001.73
2016-05-17T07:54:31.796Z,1001.7
2016-05-17T07:55:31.626Z,1001.74
2016-05-17T07:56:31.443Z,1001.66
2016-05-17T07:57:31.492Z,1001.74
2016-05-17T07:58:31.526Z,1001.74
2016-05-17T07:59:31.670Z,1001.76
2016-05-17T08:00:31.859Z,1001.75
2016-05-17T08:01:31.534Z,1001.69
2016-05-17T08:02:31.943Z,1001.79
2016-05-17T08:03:31.680Z,1001.76
2016-05-17T08:04:31.980Z,1001.71
2016-05-17T08:05:32.044Z,1001.75
2016-05-17T08:06:32.157Z,1001.69
2016-05-17T08:07:32.081Z,1001.7
2016-05-17T08:08:31.755Z,1001.69
2016-05-17T08:09:31.900Z,1001.73
2016-05-17T08:10:32.074Z,1001.76
2016-05-17T08:11:31.983Z,1001.76
2016-05-17T08:12:32.314Z,1001.86
2016-05-17T08:13:32.332Z,1001.73
2016-05-17T08:14:32.913Z,1001.9
2016-05-17T08:15:32.680Z,1001.78
2016-05-17T08:16:32.433Z,1001.78
2016-05-17T08:17:32.483Z,1001.79
2016-05-17T08:18:32.423Z,1001.85
2016-05-17T08:19:32.238Z,1001.8
2016-05-17T08:20:32.616Z,1001.78
2016-05-17T08:21:33.150Z,1001.85
2016-05-17T08:22:32.622Z,1001.8
2016-05-17T08:23:32.406Z,1001.85
2016-05-17T08:24:32.487Z,1001.78
2016-05-17T08:25:32.676Z,1001.87
2016-05-17T08:26:32.820Z,1001.87
2016-05-17T08:27:32.542Z,1001.81
2016-05-17T08:28:32.497Z,1001.74
2016-05-17T08:29:32.656Z,1001.96
2016-05-17T08:30:32.753Z,1002.04
2016-05-17T08:31:34.646Z,1001.82
2016-05-17T08:32:32.867Z,1001.79
2016-05-17T08:33:32.698Z,1001.8
2016-05-17T08:34:33.248Z,1001.83
2016-05-17T08:35:32.782Z,1001.76
2016-05-17T08:36:32.925Z,1001.89
2016-05-17T08:37:32.897Z,1001.88
2016-05-17T08:38:33.165Z,1001.94
2016-05-17T08:39:33.386Z,1001.92
2016-05-17T08:40:32.998Z,1001.91
2016-05-17T08:41:33.064Z,1001.89
2016-05-17T08:42:33.238Z,1001.91
2016-05-17T08:43:33.085Z,1001.95
2016-05-17T08:44:33.133Z,1001.82
2016-05-17T08:45:33.168Z,1001.95
2016-05-17T08:46:33.639Z,1002.26
2016-05-17T08:47:33.346Z,1001.96
2016-05-17T08:48:33.457Z,1001.96
2016-05-17T08:49:33.897Z,1001.99
2016-05-17T08:50:33.384Z,1001.88
2016-05-17T08:51:33.762Z,1002.3
2016-05-17T08:52:33.937Z,1002.04
2016-05-17T08:53:34.190Z,1002.01
2016-05-17T08:54:33.536Z,1002.07
2016-05-17T08:55:33.695Z,1002.08
2016-05-17T08:56:34.510Z,1001.97
2016-05-17T08:57:34.060Z,1002.06
2016-05-17T08:58:34.109Z,1002
2016-05-17T08:59:34.237Z,1002.06
2016-05-17T09:00:33.818Z,1002.05
2016-05-17T09:01:34.289Z,1002.06
2016-05-17T09:02:34.417Z,1002.07
2016-05-17T09:03:33.981Z,1001.99
2016-05-17T09:04:33.906Z,1001.98
2016-05-17T09:05:34.034Z,1001.97
2016-05-17T09:06:34.880Z,1001.95
2016-05-17T09:07:34.352Z,1001.97
2016-05-17T09:08:34.167Z,1002.02
2016-05-17T09:09:34.123Z,1001.94
2016-05-17T09:10:34.220Z,1001.91
2016-05-17T09:11:34.441Z,1001.98
2016-05-17T09:12:34.397Z,1001.98
2016-05-17T09:13:34.274Z,1002.03
2016-05-17T09:14:34.372Z,1002.07
2016-05-17T09:15:34.389Z,1002.07
2016-05-17T09:16:36.033Z,1002.01
2016-05-17T09:17:34.551Z,1002.04
2016-05-17T09:18:34.772Z,1001.97
2016-05-17T09:19:34.524Z,1001.97
2016-05-17T09:20:34.559Z,1002.01
2016-05-17T09:21:35.062Z,1001.97
2016-05-17T09:22:34.643Z,1001.93
2016-05-17T09:23:34.677Z,1002.01
2016-05-17T09:24:34.726Z,1002
2016-05-17T09:25:34.760Z,1001.98
2016-05-17T09:26:34.794Z,1001.89
2016-05-17T09:27:34.859Z,1001.92
2016-05-17T09:28:35.440Z,1001.85
2016-05-17T09:29:34.943Z,1001.86
2016-05-17T09:30:34.976Z,1001.88
2016-05-17T09:31:35.245Z,1001.89
2016-05-17T09:32:35.060Z,1001.86
2016-05-17T09:33:35.095Z,1001.87
2016-05-17T09:34:41.643Z,1001.93
2016-05-17T09:35:35.178Z,1001.89
2016-05-17T09:36:35.243Z,1001.9
2016-05-17T09:37:35.683Z,1001.9
2016-05-17T09:38:35.889Z,1001.85
2016-05-17T09:39:35.345Z,1001.82
2016-05-17T09:40:37.097Z,1002.03
2016-05-17T09:41:38.053Z,1001.78
2016-05-17T09:42:38.447Z,1001.77
2016-05-17T09:43:38.167Z,1001.8
2016-05-17T09:44:36.686Z,1001.84
2016-05-17T09:45:36.735Z,1001.76
2016-05-17T09:46:37.035Z,1001.84
2016-05-17T09:47:36.288Z,1001.8
2016-05-17T09:48:36.165Z,1001.9
2016-05-17T09:49:35.808Z,1001.84
2016-05-17T09:50:35.811Z,1001.87
2016-05-17T09:51:35.846Z,1001.78
2016-05-17T09:52:35.880Z,1001.76
2016-05-17T09:53:36.149Z,1001.88
2016-05-17T09:54:35.993Z,1001.89
2016-05-17T09:55:35.997Z,1001.87
2016-05-17T09:56:36.047Z,1001.84
2016-05-17T09:57:36.080Z,1001.83
2016-05-17T09:58:36.130Z,1001.86
2016-05-17T09:59:36.195Z,1001.92
2016-05-17T10:00:36.198Z,1001.81
2016-05-17T10:01:36.248Z,1001.83
2016-05-17T10:02:36.297Z,1001.82
2016-05-17T10:03:36.331Z,1001.89
2016-05-17T10:04:37.053Z,1001.92
2016-05-17T10:05:36.414Z,1001.78
2016-05-17T10:06:36.714Z,1001.79
2016-05-17T10:07:36.482Z,1001.8
2016-05-17T10:08:36.532Z,1001.82
2016-05-17T10:09:36.566Z,1001.86
2016-05-17T10:10:36.615Z,1001.79
2016-05-17T10:11:36.649Z,1001.83
2016-05-17T10:12:36.684Z,1001.81
2016-05-17T10:13:36.733Z,1001.76
2016-05-17T10:14:37.314Z,1001.76
2016-05-17T10:15:37.411Z,1001.8
2016-05-17T10:16:36.866Z,1001.88
2016-05-17T10:17:37.369Z,1001.81
2016-05-17T10:18:37.028Z,1001.85
2016-05-17T10:19:37.046Z,1001.85
2016-05-17T10:20:37.033Z,1001.9
2016-05-17T10:21:37.192Z,1001.88
2016-05-17T10:22:37.226Z,1001.9
2016-05-17T10:23:37.135Z,1001.88
2016-05-17T10:24:37.184Z,1001.8
2016-05-17T10:25:37.219Z,1002.04
2016-05-17T10:26:37.283Z,1001.86
2016-05-17T10:27:37.301Z,1001.91
2016-05-17T10:28:37.368Z,1001.92
2016-05-17T10:29:37.760Z,1001.86
2016-05-17T10:30:37.418Z,1001.92
2016-05-17T10:31:37.532Z,1001.95
2016-05-17T10:32:37.503Z,1001.88
2016-05-17T10:33:37.552Z,1001.87
2016-05-17T10:34:37.602Z,1001.81
2016-05-17T10:35:37.636Z,1001.81
2016-05-17T10:36:37.669Z,1001.78
2016-05-17T10:37:37.751Z,1001.75
2016-05-17T10:38:37.753Z,1001.82
2016-05-17T10:39:38.334Z,1001.8
2016-05-17T10:40:37.837Z,1001.86
2016-05-17T10:41:37.903Z,1001.97
2016-05-17T10:42:37.920Z,1001.9
2016-05-17T10:43:37.954Z,1001.88
2016-05-17T10:44:38.004Z,1002.17
2016-05-17T10:45:38.038Z,1001.83
2016-05-17T10:46:38.087Z,1002
2016-05-17T10:47:38.122Z,1001.8
2016-05-17T10:48:38.171Z,1001.97
2016-05-17T10:49:38.220Z,1001.9
2016-05-17T10:50:38.380Z,1001.87
2016-05-17T10:51:38.289Z,1002.05
2016-05-17T10:52:38.322Z,1002.04
2016-05-17T10:53:38.388Z,1001.83
2016-05-17T10:54:38.421Z,1001.82
2016-05-17T10:55:38.455Z,1001.75
2016-05-17T10:56:38.505Z,1002.06
2016-05-17T10:57:38.538Z,1001.93
2016-05-17T10:58:38.588Z,1001.95
2016-05-17T10:59:38.638Z,1002.08
2016-05-17T11:00:38.672Z,1002.3
2016-05-17T11:01:38.721Z,1001.98
2016-05-17T11:02:38.802Z,1002.19
2016-05-17T11:03:38.898Z,1002.25
2016-05-17T11:04:38.870Z,1002.16
2016-05-17T11:05:38.888Z,1002.27
2016-05-17T11:06:39.344Z,1001.9
2016-05-17T11:07:38.987Z,1002.19
2016-05-17T11:08:39.100Z,1002.01
2016-05-17T11:09:39.087Z,1001.71
2016-05-17T11:10:39.136Z,1001.74
2016-05-17T11:11:39.201Z,1001.76
2016-05-17T11:12:39.313Z,1001.97
2016-05-17T11:13:39.566Z,1001.79
2016-05-17T11:14:39.319Z,1001.88
2016-05-17T11:15:39.368Z,1001.95
2016-05-17T11:16:39.402Z,1001.74
2016-05-17T11:17:39.452Z,1001.76
2016-05-17T11:18:39.595Z,1001.8
2016-05-17T11:19:39.551Z,1001.84
2016-05-17T11:20:39.586Z,1001.77
2016-05-17T11:21:39.634Z,1001.73
2016-05-17T11:22:39.668Z,1001.74
2016-05-17T11:23:39.937Z,1001.75
2016-05-17T11:24:39.752Z,1001.76
2016-05-17T11:25:39.802Z,1001.8
2016-05-17T11:26:39.852Z,1001.88
2016-05-17T11:27:39.901Z,1001.79
2016-05-17T11:28:39.919Z,1001.83
2016-05-17T11:29:39.968Z,1001.82
2016-05-17T11:30:40.002Z,1001.9
2016-05-17T11:31:40.052Z,1001.84
2016-05-17T11:32:40.086Z,1001.78
2016-05-17T11:33:40.135Z,1001.74
2016-05-17T11:34:40.170Z,1001.75
2016-05-17T11:35:40.235Z,1001.78
2016-05-17T11:36:40.409Z,1001.79
2016-05-17T11:37:40.380Z,1001.9
2016-05-17T11:38:40.337Z,1001.83
2016-05-17T11:39:40.386Z,1001.79
2016-05-17T11:40:40.545Z,1001.7
2016-05-17T11:41:40.454Z,1001.8
2016-05-17T11:42:40.534Z,1001.79
2016-05-17T11:43:40.615Z,1001.77
2016-05-17T11:44:40.586Z,1001.88
2016-05-17T11:45:40.620Z,1002.09
2016-05-17T11:46:40.733Z,1001.8
2016-05-17T11:47:40.798Z,1001.78
2016-05-17T11:48:40.753Z,1001.85
2016-05-17T11:49:40.944Z,1001.86
2016-05-17T11:50:40.838Z,1001.91
2016-05-17T11:51:41.386Z,1001.82
2016-05-17T11:52:41.061Z,1001.85
2016-05-17T11:53:40.955Z,1001.82
2016-05-17T11:54:40.988Z,1001.86
2016-05-17T11:55:41.038Z,1001.79
2016-05-17T11:56:41.072Z,1001.86
2016-05-17T11:57:41.465Z,1001.91
2016-05-17T11:58:41.156Z,1001.93
2016-05-17T11:59:41.206Z,1001.84
2016-05-17T12:00:41.239Z,1001.93
2016-05-17T12:01:41.273Z,1001.94
2016-05-17T12:02:41.323Z,1001.79
2016-05-17T12:03:41.357Z,1001.82
2016-05-17T12:04:41.406Z,1001.79
2016-05-17T12:05:41.519Z,1001.8
2016-05-17T12:06:41.506Z,1001.79
2016-05-17T12:07:41.539Z,1001.8
2016-05-17T12:08:41.573Z,1001.81
2016-05-17T12:09:41.607Z,1001.85
2016-05-17T12:10:41.656Z,1001.83